createdAt,value
2024-02-08T00:00:11.401Z,2.00
2024-02-08T00:02:42.841Z,1.65
2024-02-08T00:05:11.645Z,1.83
2024-02-08T00:07:40.704Z,1.33
2024-02-08T00:10:10.224Z,1.75
2024-02-08T00:12:39.926Z,2.08
2024-02-08T00:15:10.758Z,1.77
2024-02-08T00:17:39.428Z,2.35
2024-02-08T00:20:09.472Z,1.52
2024-02-08T00:22:38.344Z,1.85
2024-02-08T00:25:07.321Z,2.40
2024-02-08T00:27:35.673Z,2.03
2024-02-08T00:30:04.584Z,1.25
2024-02-08T00:32:34.654Z,2.00
2024-02-08T00:35:07.858Z,1.70
2024-02-08T00:37:38.918Z,2.05
2024-02-08T00:40:09.426Z,2.28
2024-02-08T00:42:38.099Z,1.95
2024-02-08T00:45:07.676Z,2.00
2024-02-08T00:47:37.668Z,6.75
2024-02-08T00:50:07.294Z,8.70
2024-02-08T00:52:36.201Z,9.57
2024-02-08T00:55:05.169Z,9.63
2024-02-08T00:57:34.369Z,11.23
2024-02-08T01:00:03.215Z,9.90
2024-02-08T01:02:32.365Z,9.10
2024-02-08T01:05:03.110Z,9.32
2024-02-08T01:07:33.053Z,10.05
2024-02-08T01:10:02.343Z,10.35
2024-02-08T01:12:32.504Z,10.30
2024-02-08T01:15:01.405Z,10.75
2024-02-08T01:17:30.161Z,11.73
2024-02-08T01:20:02.768Z,10.60
2024-02-08T01:22:33.448Z,10.57
2024-02-08T01:25:02.131Z,11.10
2024-02-08T01:27:30.722Z,10.45
2024-02-08T01:30:01.368Z,10.90
2024-02-08T01:32:30.546Z,10.07
2024-02-08T01:34:59.840Z,11.25
2024-02-08T01:37:29.846Z,11.02
2024-02-08T01:40:00.952Z,17.13
2024-02-08T01:42:29.979Z,16.75
2024-02-08T01:45:32.563Z,11.27
2024-02-08T01:48:03.851Z,9.70
2024-02-08T01:50:37.104Z,10.43
2024-02-08T01:53:09.365Z,9.90
2024-02-08T01:55:40.348Z,12.20
2024-02-08T01:58:09.875Z,11.57
2024-02-08T02:00:39.468Z,10.93
2024-02-08T02:03:14.663Z,11.75
2024-02-08T02:05:44.139Z,11.27
2024-02-08T02:08:21.856Z,11.80
2024-02-08T02:11:32.146Z,12.57
2024-02-08T02:14:01.194Z,10.77
2024-02-08T02:16:29.855Z,10.85
2024-02-08T02:18:58.742Z,12.95
2024-02-08T02:21:29.301Z,11.95
2024-02-08T02:23:58.173Z,10.27
2024-02-08T02:26:28.047Z,9.55
2024-02-08T02:28:59.312Z,12.23
2024-02-08T02:31:28.830Z,12.32
2024-02-08T02:33:58.875Z,12.25
2024-02-08T02:36:28.971Z,11.70
2024-02-08T02:38:57.844Z,11.15
2024-02-08T02:41:29.229Z,11.10
2024-02-08T02:43:58.135Z,10.70
2024-02-08T02:46:28.714Z,9.77
2024-02-08T02:48:57.626Z,9.18
2024-02-08T02:51:27.716Z,8.65
2024-02-08T02:53:59.096Z,8.80
2024-02-08T02:56:29.162Z,7.63
2024-02-08T02:58:58.512Z,7.50
2024-02-08T03:01:28.113Z,7.95
2024-02-08T03:03:56.891Z,5.47
2024-02-08T03:06:27.804Z,5.63
2024-02-08T03:08:59.110Z,4.28
2024-02-08T03:11:27.917Z,3.75
2024-02-08T03:13:56.748Z,3.03
2024-02-08T03:16:29.512Z,2.92
2024-02-08T03:18:58.912Z,2.20
2024-02-08T03:21:28.702Z,1.63
2024-02-08T03:23:58.695Z,2.05
2024-02-08T03:26:27.317Z,0.98
2024-02-08T03:28:56.164Z,1.10
2024-02-08T03:31:27.501Z,1.33
2024-02-08T03:33:56.578Z,1.45
2024-02-08T03:36:25.561Z,1.27
2024-02-08T03:38:54.611Z,0.80
2024-02-08T03:41:27.330Z,1.35
2024-02-08T03:43:56.175Z,0.98
2024-02-08T03:46:27.673Z,1.10
2024-02-08T03:48:58.915Z,1.17
2024-02-08T03:51:31.608Z,1.35
2024-02-08T03:54:04.417Z,1.48
2024-02-08T03:56:38.489Z,1.00
2024-02-08T03:59:13.077Z,0.80
2024-02-08T04:01:44.596Z,0.93
2024-02-08T04:04:17.587Z,0.88
2024-02-08T04:07:02.542Z,1.33
2024-02-08T04:09:37.718Z,1.10
2024-02-08T04:12:25.900Z,1.20
2024-02-08T04:15:11.924Z,0.63
2024-02-08T04:17:58.196Z,1.23
2024-02-08T04:20:44.421Z,0.73
2024-02-08T04:23:34.154Z,0.90
2024-02-08T04:26:24.760Z,0.88
2024-02-08T04:29:13.188Z,1.02
2024-02-08T04:31:59.738Z,1.02
2024-02-08T04:34:46.134Z,0.70
2024-02-08T04:37:32.714Z,1.25
2024-02-08T04:40:19.407Z,2.13
2024-02-08T04:43:06.572Z,1.60
2024-02-08T04:45:53.700Z,1.42
2024-02-08T04:48:39.693Z,1.08
2024-02-08T04:51:29.300Z,0.60
2024-02-08T04:53:58.417Z,0.88
2024-02-08T04:56:29.743Z,0.77
2024-02-08T04:59:20.001Z,0.73
2024-02-08T05:01:50.569Z,1.08
2024-02-08T05:04:22.361Z,1.55
2024-02-08T05:06:51.889Z,1.40
2024-02-08T05:09:21.557Z,1.88
2024-02-08T05:11:51.152Z,2.40
2024-02-08T05:14:22.172Z,1.83
2024-02-08T05:16:55.586Z,1.90
2024-02-08T05:19:27.307Z,2.00
2024-02-08T05:22:00.143Z,2.22
2024-02-08T05:24:29.796Z,5.43
2024-02-08T05:26:58.723Z,8.20
2024-02-08T05:29:29.733Z,9.93
2024-02-08T05:32:00.118Z,8.75
2024-02-08T05:34:29.273Z,9.98
2024-02-08T05:37:02.433Z,9.88
2024-02-08T05:39:31.196Z,8.60
2024-02-08T05:42:00.572Z,8.57
2024-02-08T05:44:31.868Z,8.68
2024-02-08T05:47:10.418Z,8.85
2024-02-08T05:49:46.823Z,8.90
2024-02-08T05:52:16.360Z,9.20
2024-02-08T05:54:47.892Z,9.20
2024-02-08T05:57:17.102Z,8.38
2024-02-08T05:59:47.036Z,8.90
2024-02-08T06:02:25.054Z,7.85
2024-02-08T06:05:02.119Z,7.38
2024-02-08T06:07:36.150Z,7.95
2024-02-08T06:10:15.326Z,7.85
2024-02-08T06:12:46.278Z,6.43
2024-02-08T06:15:25.908Z,7.18
2024-02-08T06:18:00.632Z,5.97
2024-02-08T06:20:35.291Z,6.53
2024-02-08T06:23:18.076Z,7.45
2024-02-08T06:26:23.473Z,6.70
2024-02-08T06:28:54.685Z,14.68
2024-02-08T06:31:34.233Z,9.13
2024-02-08T06:34:28.867Z,8.48
2024-02-08T06:37:17.377Z,6.78
2024-02-08T06:39:57.130Z,7.18
2024-02-08T06:43:06.350Z,7.55
2024-02-08T06:45:54.645Z,6.30
2024-02-08T06:48:42.679Z,7.53
2024-02-08T06:51:44.941Z,7.63
2024-02-08T06:54:31.893Z,8.20
2024-02-08T06:57:19.364Z,7.20
2024-02-08T07:00:05.701Z,8.30
2024-02-08T07:02:52.195Z,7.85
2024-02-08T07:05:39.350Z,6.15
2024-02-08T07:08:27.239Z,5.50
2024-02-08T07:11:14.511Z,6.65
2024-02-08T07:14:00.461Z,6.95
2024-02-08T07:16:46.721Z,5.50
2024-02-08T07:19:33.089Z,5.78
2024-02-08T07:22:19.253Z,5.93
2024-02-08T07:25:06.582Z,5.00
2024-02-08T07:27:52.848Z,5.82
2024-02-08T07:30:39.143Z,5.93
2024-02-08T07:33:25.282Z,5.80
2024-02-08T07:36:11.317Z,5.70
2024-02-08T07:38:53.853Z,5.75
2024-02-08T07:41:25.352Z,5.63
2024-02-08T07:43:56.777Z,6.53
2024-02-08T07:46:31.223Z,5.72
2024-02-08T07:49:06.699Z,6.68
2024-02-08T07:51:35.942Z,6.43
2024-02-08T07:54:11.705Z,5.78
2024-02-08T07:56:48.471Z,6.50
2024-02-08T07:59:27.694Z,5.18
2024-02-08T08:01:58.914Z,5.82
2024-02-08T08:04:52.810Z,7.80
2024-02-08T08:07:25.532Z,6.57
2024-02-08T08:10:01.367Z,7.25
2024-02-08T08:12:33.179Z,6.15
2024-02-08T08:15:14.822Z,6.93
2024-02-08T08:17:44.778Z,7.40
2024-02-08T08:20:48.120Z,7.45
2024-02-08T08:23:27.031Z,6.65
2024-02-08T08:26:22.950Z,7.30
2024-02-08T08:28:54.708Z,6.63
2024-02-08T08:31:39.355Z,6.65
2024-02-08T08:34:24.778Z,6.93
2024-02-08T08:37:03.617Z,6.05
2024-02-08T08:40:22.191Z,6.95
2024-02-08T08:42:55.928Z,6.90
2024-02-08T08:45:26.368Z,9.97
2024-02-08T08:48:02.062Z,13.63
2024-02-08T08:50:32.288Z,16.65
2024-02-08T08:53:08.687Z,13.75
2024-02-08T08:55:40.848Z,11.20
2024-02-08T08:58:13.688Z,9.27
2024-02-08T09:00:48.125Z,9.93
2024-02-08T09:03:27.463Z,10.15
2024-02-08T09:05:58.398Z,9.10
2024-02-08T09:08:35.201Z,7.53
2024-02-08T09:11:05.270Z,5.82
2024-02-08T09:13:38.568Z,7.65
2024-02-08T09:16:23.639Z,8.77
2024-02-08T09:19:13.733Z,6.55
2024-02-08T09:21:43.256Z,6.97
2024-02-08T09:24:19.105Z,6.47
2024-02-08T09:26:53.596Z,6.72
2024-02-08T09:29:29.963Z,5.90
2024-02-08T09:32:17.184Z,6.28
2024-02-08T09:34:47.653Z,5.50
2024-02-08T09:37:17.040Z,7.00
2024-02-08T09:39:55.255Z,7.00
2024-02-08T09:42:27.989Z,6.38
2024-02-08T09:45:14.772Z,5.85
2024-02-08T09:47:53.284Z,6.13
2024-02-08T09:50:32.647Z,5.32
2024-02-08T09:53:08.730Z,5.78
2024-02-08T09:55:39.933Z,5.85
2024-02-08T09:58:11.874Z,7.00
2024-02-08T10:00:56.166Z,6.28
2024-02-08T10:06:13.788Z,4.95
2024-02-08T10:08:52.611Z,6.65
2024-02-08T10:11:28.378Z,6.32
2024-02-08T10:14:02.728Z,6.40
2024-02-08T10:16:43.565Z,5.50
2024-02-08T10:19:30.133Z,6.00
2024-02-08T10:22:01.776Z,5.85
2024-02-08T10:24:50.523Z,5.25
2024-02-08T10:27:21.595Z,6.28
2024-02-08T10:29:59.941Z,5.07
2024-02-08T10:32:29.003Z,5.57
2024-02-08T10:35:15.200Z,4.18
2024-02-08T10:37:55.165Z,3.88
2024-02-08T10:40:34.331Z,2.17
2024-02-08T10:43:17.904Z,2.70
2024-02-08T10:45:55.549Z,1.73
2024-02-08T10:48:29.970Z,1.90
2024-02-08T10:51:03.485Z,1.52
2024-02-08T10:53:50.764Z,1.20
2024-02-08T10:56:25.082Z,1.45
2024-02-08T10:58:56.646Z,1.58
2024-02-08T11:01:38.877Z,0.95
2024-02-08T11:04:18.473Z,0.70
2024-02-08T11:06:59.669Z,0.70
2024-02-08T11:09:28.625Z,1.00
2024-02-08T11:12:06.845Z,0.80
2024-02-08T11:14:42.521Z,0.57
2024-02-08T11:17:21.450Z,0.50
2024-02-08T11:19:57.789Z,0.30
2024-02-08T11:22:41.821Z,0.70
2024-02-08T11:25:21.598Z,0.30
2024-02-08T11:27:51.767Z,0.73
2024-02-08T11:30:34.323Z,0.60
2024-02-08T11:33:04.746Z,0.60
2024-02-08T11:35:36.292Z,0.73
2024-02-08T11:38:17.111Z,0.70
2024-02-08T11:40:49.839Z,0.60
2024-02-08T11:43:25.222Z,0.45
2024-02-08T11:45:58.472Z,0.52
2024-02-08T11:48:28.732Z,0.80
2024-02-08T11:51:00.034Z,0.60
2024-02-08T11:53:34.524Z,0.60
2024-02-08T11:56:09.020Z,0.60
2024-02-08T11:58:41.537Z,0.65
2024-02-08T12:01:14.587Z,0.47
2024-02-08T12:03:44.124Z,0.50
2024-02-08T12:06:24.159Z,0.65
2024-02-08T12:08:58.874Z,0.90
2024-02-08T12:11:30.868Z,0.80
2024-02-08T12:14:10.430Z,0.80
2024-02-08T12:16:52.296Z,0.93
2024-02-08T12:19:22.764Z,1.00
2024-02-08T12:21:57.790Z,1.20
2024-02-08T12:24:33.036Z,0.82
2024-02-08T12:27:12.880Z,0.70
2024-02-08T12:29:46.906Z,1.00
2024-02-08T12:32:18.754Z,0.63
2024-02-08T12:34:49.547Z,0.93
2024-02-08T12:37:23.901Z,0.52
2024-02-08T12:39:55.311Z,0.70
2024-02-08T12:42:25.637Z,0.70
2024-02-08T12:44:57.545Z,0.60
2024-02-08T12:47:27.236Z,0.55
2024-02-08T12:50:00.355Z,0.68
2024-02-08T12:52:34.286Z,0.98
2024-02-08T12:55:04.905Z,1.00
2024-02-08T12:57:37.730Z,0.80
2024-02-08T13:00:09.278Z,0.50
2024-02-08T13:02:39.916Z,1.08
2024-02-08T13:05:09.338Z,0.60
2024-02-08T13:07:39.212Z,0.52
2024-02-08T13:10:16.178Z,0.73
2024-02-08T13:12:47.176Z,0.57
2024-02-08T13:15:23.724Z,1.08
2024-02-08T13:17:53.100Z,1.30
2024-02-08T13:20:25.082Z,0.70
2024-02-08T13:22:56.051Z,0.90
2024-02-08T13:25:29.607Z,1.00
2024-02-08T13:27:59.797Z,1.05
2024-02-08T13:30:31.046Z,1.50
2024-02-08T13:33:00.566Z,1.33
2024-02-08T13:35:30.031Z,1.40
2024-02-08T13:38:02.660Z,1.58
2024-02-08T13:40:32.909Z,1.42
2024-02-08T13:43:01.936Z,1.40
2024-02-08T13:45:34.020Z,1.77
2024-02-08T13:48:04.944Z,1.92
2024-02-08T13:50:34.655Z,1.85
2024-02-08T13:53:05.069Z,2.05
2024-02-08T13:55:46.243Z,1.88
2024-02-08T13:58:23.139Z,2.47
2024-02-08T14:00:56.100Z,1.75
2024-02-08T14:03:27.883Z,2.58
2024-02-08T14:05:57.361Z,2.65
2024-02-08T14:08:29.390Z,2.75
2024-02-08T14:11:00.768Z,1.83
2024-02-08T14:13:36.618Z,2.25
2024-02-08T14:16:16.208Z,2.42
2024-02-08T14:18:51.780Z,3.00
2024-02-08T14:21:27.073Z,3.22
2024-02-08T14:24:02.017Z,1.90
2024-02-08T14:26:39.104Z,3.00
2024-02-08T14:29:09.521Z,2.45
2024-02-08T14:31:40.663Z,2.97
2024-02-08T14:34:12.536Z,4.18
2024-02-08T14:36:48.076Z,3.35
2024-02-08T14:39:30.797Z,2.95
2024-02-08T14:42:02.380Z,3.35
2024-02-08T14:44:42.127Z,3.97
2024-02-08T14:47:16.892Z,3.72
2024-02-08T14:50:00.277Z,3.78
2024-02-08T14:52:37.197Z,4.27
2024-02-08T14:55:24.148Z,3.05
2024-02-08T14:58:00.971Z,3.65
2024-02-08T15:00:48.068Z,4.55
2024-02-08T15:03:29.372Z,3.80
2024-02-08T15:06:07.073Z,4.07
2024-02-08T15:08:47.386Z,4.55
2024-02-08T15:11:39.636Z,3.53
2024-02-08T15:14:17.926Z,3.45
2024-02-08T15:16:47.982Z,2.90
2024-02-08T15:19:20.865Z,3.63
2024-02-08T15:21:54.129Z,3.42
2024-02-08T15:24:23.113Z,3.70
2024-02-08T15:27:06.638Z,3.92
2024-02-08T15:29:37.868Z,4.63
2024-02-08T15:32:11.845Z,3.67
2024-02-08T15:34:48.221Z,3.60
2024-02-08T15:37:21.662Z,4.05
2024-02-08T15:40:10.952Z,4.00
2024-02-08T15:42:44.476Z,5.28
2024-02-08T15:45:22.529Z,4.95
2024-02-08T15:48:02.151Z,4.53
2024-02-08T15:50:37.533Z,3.95
2024-02-08T15:53:17.685Z,4.13
2024-02-08T15:55:50.832Z,4.03
2024-02-08T15:58:21.340Z,4.15
2024-02-08T16:01:09.276Z,4.45
2024-02-08T16:03:43.782Z,5.00
2024-02-08T16:06:26.667Z,5.07
2024-02-08T16:08:58.548Z,6.05
2024-02-08T16:11:31.221Z,4.68
2024-02-08T16:14:04.682Z,4.53
2024-02-08T16:16:35.887Z,5.60
2024-02-08T16:19:18.680Z,3.92
2024-02-08T16:21:47.471Z,4.47
2024-02-08T16:24:19.317Z,4.90
2024-02-08T16:26:54.387Z,5.82
2024-02-08T16:29:35.254Z,4.25
2024-02-08T16:32:20.941Z,3.95
2024-02-08T16:34:54.685Z,4.13
2024-02-08T16:37:44.616Z,4.10
2024-02-08T16:40:18.512Z,2.83
2024-02-08T16:42:53.466Z,3.80
2024-02-08T16:48:15.279Z,3.25
2024-02-08T16:50:47.449Z,4.43
2024-02-08T16:53:20.276Z,3.75
2024-02-08T16:55:57.796Z,3.38
2024-02-08T16:58:39.345Z,3.95
2024-02-08T17:01:23.075Z,3.60
2024-02-08T17:04:02.038Z,3.35
2024-02-08T17:06:35.161Z,4.68
2024-02-08T17:09:17.111Z,5.53
2024-02-08T17:11:50.187Z,3.70
2024-02-08T17:14:34.137Z,4.30
2024-02-08T17:17:14.275Z,3.60
2024-02-08T17:19:53.335Z,4.05
2024-02-08T17:22:50.346Z,4.03
2024-02-08T17:25:26.592Z,4.13
2024-02-08T17:28:07.734Z,3.70
2024-02-08T17:31:05.194Z,4.05
2024-02-08T17:33:40.951Z,3.67
2024-02-08T17:36:14.589Z,3.17
2024-02-08T17:38:44.700Z,3.95
2024-02-08T17:41:20.303Z,3.83
2024-02-08T17:43:56.345Z,4.20
2024-02-08T17:46:26.144Z,3.95
2024-02-08T17:48:56.706Z,3.47
2024-02-08T17:51:39.885Z,4.40
2024-02-08T17:54:09.577Z,3.92
2024-02-08T17:56:43.210Z,2.97
2024-02-08T17:59:17.349Z,3.83
2024-02-08T18:01:57.277Z,3.15
2024-02-08T18:04:29.277Z,3.28
2024-02-08T18:07:11.047Z,3.85
2024-02-08T18:09:43.391Z,3.53
2024-02-08T18:12:23.807Z,3.60
2024-02-08T18:14:57.252Z,3.42
2024-02-08T18:17:26.442Z,3.03
2024-02-08T18:19:56.040Z,2.88
2024-02-08T18:22:31.516Z,3.88
2024-02-08T18:25:01.487Z,2.33
2024-02-08T18:27:33.824Z,4.47
2024-02-08T18:30:05.866Z,3.65
2024-02-08T18:32:36.033Z,3.03
2024-02-08T18:35:08.375Z,3.83
2024-02-08T18:37:39.424Z,4.38
2024-02-08T18:40:18.267Z,3.67
2024-02-08T18:42:48.289Z,3.90
2024-02-08T18:45:18.040Z,5.47
2024-02-08T18:47:51.337Z,4.25
2024-02-08T18:50:25.596Z,5.25
2024-02-08T18:52:56.217Z,4.75
2024-02-08T18:55:46.330Z,4.45
2024-02-08T18:58:18.283Z,4.60
2024-02-08T19:00:50.643Z,3.65
2024-02-08T19:03:21.791Z,3.95
2024-02-08T19:05:51.425Z,3.83
2024-02-08T19:08:21.654Z,3.95
2024-02-08T19:10:58.672Z,3.38
2024-02-08T19:13:28.697Z,3.10
2024-02-08T19:15:59.554Z,4.38
2024-02-08T19:18:33.565Z,4.03
2024-02-08T19:21:03.003Z,3.47
2024-02-08T19:23:35.389Z,3.47
2024-02-08T19:26:09.486Z,3.75
2024-02-08T19:28:38.375Z,4.78
2024-02-08T19:31:10.750Z,4.20
2024-02-08T19:33:43.121Z,3.47
2024-02-08T19:36:14.877Z,3.05
2024-02-08T19:38:46.083Z,4.90
2024-02-08T19:41:16.564Z,4.82
2024-02-08T19:43:46.913Z,3.70
2024-02-08T19:46:18.553Z,3.25
2024-02-08T19:48:53.464Z,3.63
2024-02-08T19:51:26.269Z,4.13
2024-02-08T19:53:57.095Z,2.50
2024-02-08T19:56:27.429Z,3.58
2024-02-08T19:58:59.537Z,3.95
2024-02-08T20:01:29.194Z,3.28
2024-02-08T20:04:02.385Z,3.40
2024-02-08T20:06:31.478Z,3.38
2024-02-08T20:09:01.502Z,3.17
2024-02-08T20:11:30.293Z,4.38
2024-02-08T20:14:00.169Z,3.88
2024-02-08T20:16:32.406Z,2.65
2024-02-08T20:19:02.438Z,3.55
2024-02-08T20:21:32.789Z,2.97
2024-02-08T20:24:03.585Z,3.33
2024-02-08T20:26:32.222Z,3.00
2024-02-08T20:29:05.970Z,3.65
2024-02-08T20:31:36.230Z,3.83
2024-02-08T20:34:06.636Z,3.95
2024-02-08T20:36:35.063Z,3.80
2024-02-08T20:39:18.994Z,3.58
2024-02-08T20:41:50.618Z,3.33
2024-02-08T20:44:23.107Z,3.60
2024-02-08T20:46:57.604Z,3.55
2024-02-08T20:49:29.379Z,3.40
2024-02-08T20:52:00.440Z,3.53
2024-02-08T20:54:33.344Z,3.28
2024-02-08T20:57:03.764Z,3.72
2024-02-08T20:59:36.019Z,3.50
2024-02-08T21:02:04.971Z,3.70
2024-02-08T21:04:34.363Z,4.47
2024-02-08T21:07:03.081Z,5.50
2024-02-08T21:09:33.349Z,4.53
2024-02-08T21:12:06.521Z,4.32
2024-02-08T21:14:35.330Z,5.43
2024-02-08T21:17:04.408Z,5.10
2024-02-08T21:19:34.394Z,4.50
2024-02-08T21:22:03.485Z,4.75
2024-02-08T21:24:33.472Z,5.03
2024-02-08T21:27:02.364Z,4.60
2024-02-08T21:29:38.003Z,4.57
2024-02-08T21:32:07.452Z,3.50
2024-02-08T21:34:36.425Z,4.97
2024-02-08T21:37:08.143Z,4.88
2024-02-08T21:39:38.972Z,6.03
2024-02-08T21:42:08.507Z,5.25
2024-02-08T21:44:39.586Z,5.15
2024-02-08T21:47:08.617Z,6.30
2024-02-08T21:49:37.316Z,6.10
2024-02-08T21:52:08.548Z,6.72
2024-02-08T21:54:40.059Z,5.00
2024-02-08T21:57:09.196Z,4.78
2024-02-08T21:59:38.086Z,5.00
2024-02-08T22:02:09.189Z,5.35
2024-02-08T22:04:38.952Z,4.72
2024-02-08T22:07:08.076Z,4.97
2024-02-08T22:09:38.092Z,4.05
2024-02-08T22:12:07.161Z,4.28
2024-02-08T22:14:40.492Z,5.38
2024-02-08T22:17:10.771Z,4.72
2024-02-08T22:19:44.377Z,5.40
2024-02-08T22:22:14.445Z,4.30
2024-02-08T22:24:44.176Z,4.65
2024-02-08T22:27:12.493Z,4.07
2024-02-08T22:29:41.235Z,5.55
2024-02-08T22:32:12.655Z,5.43
2024-02-08T22:34:42.648Z,4.90
2024-02-08T22:37:11.785Z,5.22
2024-02-08T22:39:40.506Z,4.63
2024-02-08T22:42:11.142Z,4.53
2024-02-08T22:44:40.143Z,5.50
2024-02-08T22:47:08.960Z,4.55
2024-02-08T22:49:37.812Z,5.07
2024-02-08T22:52:07.345Z,5.80
2024-02-08T22:54:36.152Z,5.18
2024-02-08T22:57:04.844Z,4.88
2024-02-08T22:59:34.926Z,4.43
2024-02-08T23:02:08.151Z,3.38
2024-02-08T23:04:38.982Z,4.50
2024-02-08T23:07:08.945Z,5.75
2024-02-08T23:09:37.675Z,3.88
2024-02-08T23:12:08.166Z,4.30
2024-02-08T23:14:38.206Z,3.95
2024-02-08T23:17:08.085Z,3.90
2024-02-08T23:19:36.771Z,5.20
2024-02-08T23:22:06.816Z,3.65
2024-02-08T23:24:41.630Z,4.18
2024-02-08T23:29:42.206Z,4.13
2024-02-08T23:32:12.123Z,4.00
2024-02-08T23:34:42.071Z,3.65
2024-02-08T23:37:12.361Z,4.80
2024-02-08T23:39:41.300Z,5.15
2024-02-08T23:42:10.313Z,5.05
2024-02-08T23:44:41.354Z,5.30
2024-02-08T23:47:18.516Z,3.90
2024-02-08T23:49:47.272Z,6.10
2024-02-08T23:52:17.193Z,4.82
2024-02-08T23:54:49.105Z,5.10
2024-02-08T23:57:19.377Z,4.80
2024-02-08T23:59:51.388Z,4.57
